createdAt,value
2019-05-19T00:01:44.098Z,13.45
2019-05-19T00:04:14.697Z,13.44
2019-05-19T00:06:44.022Z,13.44
2019-05-19T00:09:16.483Z,13.44
2019-05-19T00:11:45.425Z,13.43
2019-05-19T00:14:14.821Z,13.43
2019-05-19T00:16:44.206Z,13.44
2019-05-19T00:19:25.716Z,13.43
2019-05-19T00:21:44.638Z,13.44
2019-05-19T00:24:13.991Z,13.44
2019-05-19T00:26:43.321Z,13.43
2019-05-19T00:29:12.676Z,13.42
2019-05-19T00:31:42.012Z,13.39
2019-05-19T00:34:11.427Z,13.39
2019-05-19T00:36:40.732Z,13.39
2019-05-19T00:39:10.068Z,13.41
2019-05-19T00:41:39.402Z,13.42
2019-05-19T00:44:08.732Z,13.43
2019-05-19T00:46:38.201Z,13.44
2019-05-19T00:49:07.526Z,13.44
2019-05-19T00:51:37.175Z,13.44
2019-05-19T00:54:06.507Z,13.46
2019-05-19T00:56:36.126Z,13.46
2019-05-19T00:59:05.976Z,13.44
2019-05-19T01:01:35.457Z,13.43
2019-05-19T01:04:04.811Z,13.42
2019-05-19T01:06:34.141Z,13.41
2019-05-19T01:09:03.994Z,13.40
2019-05-19T01:11:33.326Z,13.40
2019-05-19T01:14:02.878Z,13.40
2019-05-19T01:16:34.043Z,13.38
2019-05-19T01:19:03.420Z,13.40
2019-05-19T01:21:34.351Z,13.38
2019-05-19T01:24:03.706Z,13.37
2019-05-19T01:26:33.001Z,13.34
2019-05-19T01:29:02.347Z,13.30
2019-05-19T01:31:31.702Z,13.27
2019-05-19T01:34:01.003Z,13.25
2019-05-19T01:36:30.350Z,13.24
2019-05-19T01:38:59.678Z,13.20
2019-05-19T01:41:29.065Z,13.20
2019-05-19T01:43:58.377Z,13.18
2019-05-19T01:46:27.716Z,13.17
2019-05-19T01:48:58.177Z,13.16
2019-05-19T01:51:27.529Z,13.16
2019-05-19T01:53:56.848Z,13.15
2019-05-19T01:56:26.161Z,13.13
2019-05-19T01:58:55.518Z,13.13
2019-05-19T02:01:24.845Z,13.10
2019-05-19T02:03:54.170Z,13.11
2019-05-19T02:06:23.538Z,13.11
2019-05-19T02:08:52.862Z,13.10
2019-05-19T02:11:22.276Z,13.11
2019-05-19T02:13:51.624Z,13.11
2019-05-19T02:16:20.980Z,13.06
2019-05-19T02:18:50.336Z,13.06
2019-05-19T02:21:19.697Z,13.10
2019-05-19T02:23:49.025Z,13.08
2019-05-19T02:26:18.342Z,13.09
2019-05-19T02:28:47.785Z,13.09
2019-05-19T02:31:17.147Z,13.07
2019-05-19T02:33:46.451Z,13.06
2019-05-19T02:36:15.781Z,13.04
2019-05-19T02:38:45.154Z,13.03
2019-05-19T02:41:17.382Z,13.03
2019-05-19T02:43:48.129Z,13.02
2019-05-19T02:46:18.879Z,13.00
2019-05-19T02:48:49.538Z,12.97
2019-05-19T02:51:21.588Z,12.95
2019-05-19T02:53:52.331Z,12.95
2019-05-19T02:56:22.674Z,12.93
2019-05-19T02:58:53.083Z,12.89
2019-05-19T03:01:22.434Z,12.87
2019-05-19T03:03:51.753Z,12.88
2019-05-19T03:06:21.070Z,12.86
2019-05-19T03:08:50.431Z,12.87
2019-05-19T03:11:19.782Z,12.88
2019-05-19T03:13:50.553Z,12.89
2019-05-19T03:16:19.937Z,12.87
2019-05-19T03:18:49.308Z,12.85
2019-05-19T03:21:18.654Z,12.83
2019-05-19T03:23:47.974Z,12.82
2019-05-19T03:26:17.312Z,12.80
2019-05-19T03:28:46.669Z,12.80
2019-05-19T03:31:23.540Z,12.78
2019-05-19T03:33:53.658Z,12.77
2019-05-19T03:36:23.003Z,12.76
2019-05-19T03:38:52.363Z,12.75
2019-05-19T03:41:21.699Z,12.73
2019-05-19T03:43:51.017Z,12.72
2019-05-19T03:46:20.385Z,12.69
2019-05-19T03:48:49.729Z,12.67
2019-05-19T03:51:30.145Z,12.65
2019-05-19T03:53:50.264Z,12.63
2019-05-19T03:56:19.607Z,12.64
2019-05-19T03:58:48.956Z,12.66
2019-05-19T04:01:18.338Z,12.66
2019-05-19T04:03:47.742Z,12.66
2019-05-19T04:06:17.071Z,12.66
2019-05-19T04:08:46.392Z,12.65
2019-05-19T04:11:15.739Z,12.65
2019-05-19T04:13:45.098Z,12.66
2019-05-19T04:16:14.480Z,12.68
2019-05-19T04:18:43.748Z,12.70
2019-05-19T04:21:13.129Z,12.71
2019-05-19T04:23:42.462Z,12.71
2019-05-19T04:26:11.811Z,12.72
2019-05-19T04:28:41.137Z,12.71
2019-05-19T04:31:10.462Z,12.71
2019-05-19T04:33:39.872Z,12.72
2019-05-19T04:36:09.369Z,12.71
2019-05-19T04:38:38.714Z,12.70
2019-05-19T04:41:08.044Z,12.68
2019-05-19T04:43:37.382Z,12.67
2019-05-19T04:46:06.797Z,12.66
2019-05-19T04:48:36.137Z,12.65
2019-05-19T04:51:05.462Z,12.64
2019-05-19T04:53:34.814Z,12.64
2019-05-19T04:56:04.154Z,12.63
2019-05-19T04:58:33.490Z,12.63
2019-05-19T05:01:02.837Z,12.63
2019-05-19T05:03:32.203Z,12.62
2019-05-19T05:06:07.611Z,12.63
2019-05-19T05:08:38.452Z,12.64
2019-05-19T05:11:09.586Z,12.62
2019-05-19T05:13:39.006Z,12.61
2019-05-19T05:16:08.400Z,12.60
2019-05-19T05:18:37.758Z,12.59
2019-05-19T05:21:07.077Z,12.58
2019-05-19T05:23:38.138Z,12.57
2019-05-19T05:26:07.468Z,12.56
2019-05-19T05:28:36.868Z,12.55
2019-05-19T05:31:06.336Z,12.54
2019-05-19T05:33:35.675Z,12.56
2019-05-19T05:36:05.048Z,12.55
2019-05-19T05:38:34.398Z,12.57
2019-05-19T05:41:03.748Z,12.57
2019-05-19T05:43:33.098Z,12.58
2019-05-19T05:46:02.546Z,12.57
2019-05-19T05:48:31.910Z,12.57
2019-05-19T05:51:01.253Z,12.58
2019-05-19T05:53:32.404Z,12.61
2019-05-19T05:56:01.759Z,12.62
2019-05-19T05:58:31.112Z,12.64
2019-05-19T06:01:00.418Z,12.65
2019-05-19T06:03:29.740Z,12.68
2019-05-19T06:06:05.319Z,12.69
2019-05-19T06:08:34.662Z,12.71
2019-05-19T06:11:04.123Z,12.75
2019-05-19T06:13:33.521Z,12.77
2019-05-19T06:16:02.893Z,12.78
2019-05-19T06:18:32.257Z,12.79
2019-05-19T06:21:01.603Z,12.80
2019-05-19T06:23:31.136Z,12.81
2019-05-19T06:26:00.476Z,12.81
2019-05-19T06:28:29.801Z,12.84
2019-05-19T06:30:59.207Z,12.87
2019-05-19T06:33:28.600Z,12.89
2019-05-19T06:35:58.065Z,12.90
2019-05-19T06:38:27.497Z,12.93
2019-05-19T06:40:56.802Z,12.95
2019-05-19T06:43:26.772Z,12.97
2019-05-19T06:45:56.132Z,12.98
2019-05-19T06:48:25.496Z,12.98
2019-05-19T06:50:54.895Z,13.00
2019-05-19T06:53:24.311Z,13.00
2019-05-19T06:55:54.897Z,13.03
2019-05-19T06:58:24.349Z,13.07
2019-05-19T07:00:53.730Z,13.11
2019-05-19T07:03:23.053Z,13.16
2019-05-19T07:05:52.410Z,13.20
2019-05-19T07:08:21.878Z,13.23
2019-05-19T07:10:51.280Z,13.26
2019-05-19T07:13:20.643Z,13.31
2019-05-19T07:15:50.093Z,13.34
2019-05-19T07:18:19.466Z,13.38
2019-05-19T07:20:48.812Z,13.44
2019-05-19T07:23:27.959Z,13.48
2019-05-19T07:25:49.261Z,13.51
2019-05-19T07:28:18.674Z,13.54
2019-05-19T07:30:48.000Z,13.58
2019-05-19T07:33:17.373Z,13.62
2019-05-19T07:35:47.094Z,13.67
2019-05-19T07:38:16.415Z,13.68
2019-05-19T07:40:47.003Z,13.75
2019-05-19T07:43:16.549Z,13.79
2019-05-19T07:45:45.966Z,13.83
2019-05-19T07:48:19.890Z,13.85
2019-05-19T07:50:49.250Z,13.86
2019-05-19T07:53:18.613Z,13.89
2019-05-19T07:55:47.956Z,13.93
2019-05-19T07:58:17.343Z,13.96
2019-05-19T08:00:46.675Z,13.99
2019-05-19T08:03:16.101Z,14.02
2019-05-19T08:05:45.456Z,14.03
2019-05-19T08:08:14.816Z,14.06
2019-05-19T08:10:45.250Z,14.05
2019-05-19T08:13:14.607Z,14.09
2019-05-19T08:15:43.975Z,14.14
2019-05-19T08:18:13.355Z,14.22
2019-05-19T08:20:44.712Z,14.28
2019-05-19T08:23:14.060Z,14.29
2019-05-19T08:25:43.408Z,14.32
2019-05-19T08:28:12.752Z,14.37
2019-05-19T08:30:42.082Z,14.41
2019-05-19T08:33:11.412Z,14.45
2019-05-19T08:35:40.775Z,14.51
2019-05-19T08:38:10.132Z,14.49
2019-05-19T08:40:39.467Z,14.49
2019-05-19T08:43:08.836Z,14.54
2019-05-19T08:45:38.214Z,14.55
2019-05-19T08:48:07.544Z,14.60
2019-05-19T08:50:36.871Z,14.62
2019-05-19T08:53:06.252Z,14.60
2019-05-19T08:55:35.666Z,14.65
2019-05-19T08:58:05.029Z,14.63
2019-05-19T09:00:38.301Z,14.61
2019-05-19T09:03:05.471Z,14.59
2019-05-19T09:05:34.829Z,14.59
2019-05-19T09:08:04.170Z,14.59
2019-05-19T09:10:33.523Z,14.58
2019-05-19T09:13:04.898Z,14.57
2019-05-19T09:15:34.239Z,14.58
2019-05-19T09:18:03.608Z,14.63
2019-05-19T09:20:32.927Z,14.69
2019-05-19T09:23:02.271Z,14.73
2019-05-19T09:25:31.610Z,14.75
2019-05-19T09:28:00.971Z,14.82
2019-05-19T09:30:30.298Z,14.90
2019-05-19T09:32:59.658Z,15.00
2019-05-19T09:35:29.024Z,15.05
2019-05-19T09:37:58.343Z,15.12
2019-05-19T09:40:27.733Z,15.18
2019-05-19T09:42:57.122Z,15.23
2019-05-19T09:45:26.474Z,15.28
2019-05-19T09:47:55.830Z,15.35
2019-05-19T09:50:25.165Z,15.44
2019-05-19T09:52:54.522Z,15.54
2019-05-19T09:55:23.857Z,15.63
2019-05-19T09:57:53.215Z,15.73
2019-05-19T10:00:22.731Z,15.87
2019-05-19T10:02:52.087Z,15.97
2019-05-19T10:05:21.431Z,16.04
2019-05-19T10:07:50.746Z,16.13
2019-05-19T10:10:43.884Z,16.22
2019-05-19T10:13:13.222Z,16.30
2019-05-19T10:15:42.567Z,16.43
2019-05-19T10:18:11.946Z,16.51
2019-05-19T10:20:41.329Z,16.65
2019-05-19T10:23:10.628Z,16.78
2019-05-19T10:25:39.973Z,16.83
2019-05-19T10:28:09.313Z,16.84
2019-05-19T10:30:38.681Z,16.86
2019-05-19T10:33:08.021Z,16.90
2019-05-19T10:35:37.444Z,16.96
2019-05-19T10:38:06.738Z,17.02
2019-05-19T10:40:36.103Z,17.14
2019-05-19T10:43:05.536Z,17.20
2019-05-19T10:45:35.052Z,17.22
2019-05-19T10:48:04.383Z,17.27
2019-05-19T10:50:33.762Z,17.24
2019-05-19T10:53:03.084Z,17.28
2019-05-19T10:55:36.510Z,17.36
2019-05-19T10:58:03.481Z,17.47
2019-05-19T11:00:32.820Z,17.52
2019-05-19T11:03:02.183Z,17.49
2019-05-19T11:05:31.548Z,17.39
2019-05-19T11:08:00.947Z,17.38
2019-05-19T11:10:30.299Z,17.37
2019-05-19T11:12:59.850Z,17.36
2019-05-19T11:15:29.196Z,17.36
2019-05-19T11:17:58.506Z,17.33
2019-05-19T11:20:27.880Z,17.36
2019-05-19T11:22:57.221Z,17.42
2019-05-19T11:25:33.882Z,17.43
2019-05-19T11:27:57.663Z,17.37
2019-05-19T11:30:27.019Z,17.25
2019-05-19T11:32:56.338Z,17.26
2019-05-19T11:35:25.684Z,17.30
2019-05-19T11:37:55.039Z,17.27
2019-05-19T11:40:24.389Z,17.30
2019-05-19T11:42:53.736Z,17.32
2019-05-19T11:45:23.111Z,17.30
2019-05-19T11:47:52.427Z,17.32
2019-05-19T11:50:21.760Z,17.37
2019-05-19T11:52:51.086Z,17.37
2019-05-19T11:55:20.389Z,17.40
2019-05-19T11:57:49.752Z,17.42
2019-05-19T12:00:19.284Z,17.42
2019-05-19T12:02:48.630Z,17.44
2019-05-19T12:05:18.062Z,17.49
2019-05-19T12:07:47.405Z,17.56
2019-05-19T12:10:17.063Z,17.63
2019-05-19T12:12:47.260Z,17.65
2019-05-19T12:15:16.724Z,17.68
2019-05-19T12:17:46.095Z,17.77
2019-05-19T12:20:15.456Z,17.92
2019-05-19T12:22:44.825Z,18.00
2019-05-19T12:25:14.386Z,18.11
2019-05-19T12:27:43.741Z,18.21
2019-05-19T12:30:18.198Z,18.19
2019-05-19T12:32:47.577Z,18.16
2019-05-19T12:35:16.876Z,18.21
2019-05-19T12:37:46.248Z,18.27
2019-05-19T12:40:17.025Z,18.31
2019-05-19T12:42:46.356Z,18.37
2019-05-19T12:45:16.016Z,18.46
2019-05-19T12:47:45.337Z,18.58
2019-05-19T12:50:15.961Z,18.59
2019-05-19T12:52:45.306Z,18.54
2019-05-19T12:55:16.236Z,18.57
2019-05-19T12:57:45.590Z,18.64
2019-05-19T13:00:15.567Z,18.70
2019-05-19T13:02:44.932Z,18.72
2019-05-19T13:05:14.353Z,18.69
2019-05-19T13:07:43.707Z,18.68
2019-05-19T13:10:13.077Z,18.75
2019-05-19T13:12:42.422Z,18.80
2019-05-19T13:15:11.984Z,18.73
2019-05-19T13:17:41.329Z,18.58
2019-05-19T13:20:10.929Z,18.43
2019-05-19T13:22:40.276Z,18.34
2019-05-19T13:25:09.856Z,18.29
2019-05-19T13:27:39.192Z,18.24
2019-05-19T13:30:10.051Z,18.25
2019-05-19T13:32:39.448Z,18.37
2019-05-19T13:35:08.965Z,18.49
2019-05-19T13:37:38.282Z,18.50
2019-05-19T13:40:09.400Z,18.58
2019-05-19T13:42:38.737Z,18.78
2019-05-19T13:45:09.814Z,18.85
2019-05-19T13:47:39.186Z,18.75
2019-05-19T13:50:09.223Z,18.62
2019-05-19T13:52:38.850Z,18.52
2019-05-19T13:55:09.495Z,18.59
2019-05-19T13:57:38.830Z,18.75
2019-05-19T14:00:08.592Z,18.88
2019-05-19T14:02:37.919Z,18.97
2019-05-19T14:05:07.238Z,19.24
2019-05-19T14:07:36.628Z,19.33
2019-05-19T14:10:07.427Z,19.45
2019-05-19T14:12:36.818Z,19.37
2019-05-19T14:15:06.661Z,19.18
2019-05-19T14:17:36.047Z,19.25
2019-05-19T14:20:05.707Z,19.47
2019-05-19T14:22:35.086Z,19.56
2019-05-19T14:25:04.441Z,19.53
2019-05-19T14:27:33.787Z,19.64
2019-05-19T14:30:03.273Z,19.59
2019-05-19T14:32:32.597Z,19.54
2019-05-19T14:35:01.998Z,19.54
2019-05-19T14:37:31.371Z,19.55
2019-05-19T14:40:00.717Z,19.60
2019-05-19T14:43:01.434Z,19.63
2019-05-19T14:45:31.076Z,19.65
2019-05-19T14:48:00.399Z,19.68
2019-05-19T14:50:29.746Z,19.60
2019-05-19T14:52:59.096Z,19.62
2019-05-19T14:55:28.514Z,19.58
2019-05-19T14:57:57.850Z,19.66
2019-05-19T15:00:27.210Z,19.76
2019-05-19T15:02:56.577Z,19.78
2019-05-19T15:05:25.929Z,19.93
2019-05-19T15:07:55.341Z,19.99
2019-05-19T15:10:24.778Z,20.03
2019-05-19T15:12:54.148Z,20.03
2019-05-19T15:15:23.486Z,20.06
2019-05-19T15:17:52.839Z,20.06
2019-05-19T15:20:22.287Z,20.13
2019-05-19T15:22:51.659Z,20.17
2019-05-19T15:25:21.012Z,20.18
2019-05-19T15:27:59.761Z,20.21
2019-05-19T15:30:21.401Z,20.17
2019-05-19T15:32:50.730Z,20.28
2019-05-19T15:35:20.081Z,20.35
2019-05-19T15:37:49.444Z,20.25
2019-05-19T15:40:18.851Z,20.28
2019-05-19T15:42:48.218Z,20.23
2019-05-19T15:45:17.757Z,20.27
2019-05-19T15:47:47.126Z,20.29
2019-05-19T15:50:16.889Z,20.31
2019-05-19T15:52:46.228Z,20.33
2019-05-19T15:55:17.910Z,20.38
2019-05-19T15:57:47.262Z,20.57
2019-05-19T16:00:16.879Z,20.70
2019-05-19T16:02:46.303Z,20.77
2019-05-19T16:05:15.980Z,20.93
2019-05-19T16:07:45.344Z,21.08
2019-05-19T16:10:15.814Z,21.23
2019-05-19T16:12:45.207Z,21.42
2019-05-19T16:15:16.682Z,21.57
2019-05-19T16:17:46.367Z,21.71
2019-05-19T16:20:15.794Z,21.81
2019-05-19T16:22:45.198Z,21.99
2019-05-19T16:25:16.903Z,21.96
2019-05-19T16:27:46.588Z,22.02
2019-05-19T16:30:16.301Z,22.06
2019-05-19T16:32:45.665Z,22.04
2019-05-19T16:35:16.069Z,22.20
2019-05-19T16:37:45.446Z,22.41
2019-05-19T16:40:14.843Z,22.44
2019-05-19T16:42:46.163Z,22.42
2019-05-19T16:45:15.957Z,22.43
2019-05-19T16:47:45.327Z,22.41
2019-05-19T16:50:15.105Z,22.47
2019-05-19T16:52:44.483Z,22.57
2019-05-19T16:55:23.148Z,22.56
2019-05-19T16:57:52.499Z,22.51
2019-05-19T17:00:22.717Z,22.54
2019-05-19T17:02:52.095Z,22.42
2019-05-19T17:05:21.477Z,22.34
2019-05-19T17:07:50.804Z,22.32
2019-05-19T17:10:20.235Z,22.42
2019-05-19T17:12:50.022Z,22.43
2019-05-19T17:15:19.973Z,22.50
2019-05-19T17:17:49.291Z,22.49
2019-05-19T17:20:19.153Z,22.35
2019-05-19T17:22:48.507Z,22.20
2019-05-19T17:25:18.267Z,22.15
2019-05-19T17:27:47.626Z,22.14
2019-05-19T17:30:17.824Z,22.23
2019-05-19T17:32:47.142Z,22.17
2019-05-19T17:35:16.593Z,22.22
2019-05-19T17:37:45.945Z,22.24
2019-05-19T17:40:15.789Z,22.13
2019-05-19T17:42:45.164Z,21.99
2019-05-19T17:45:16.017Z,21.78
2019-05-19T17:47:45.375Z,21.72
2019-05-19T17:50:15.449Z,21.71
2019-05-19T17:52:44.818Z,21.69
2019-05-19T17:55:15.252Z,21.62
2019-05-19T17:57:45.832Z,21.49
2019-05-19T18:00:16.848Z,21.48
2019-05-19T18:02:46.181Z,21.33
2019-05-19T18:05:15.630Z,21.24
2019-05-19T18:07:45.066Z,21.23
2019-05-19T18:10:14.414Z,21.26
2019-05-19T18:12:43.764Z,21.32
2019-05-19T18:15:13.151Z,21.34
2019-05-19T18:17:42.576Z,21.35
2019-05-19T18:20:23.312Z,21.24
2019-05-19T18:22:43.209Z,21.21
2019-05-19T18:25:12.674Z,21.17
2019-05-19T18:27:42.040Z,21.06
2019-05-19T18:30:11.670Z,20.94
2019-05-19T18:32:41.031Z,20.90
2019-05-19T18:35:10.471Z,20.81
2019-05-19T18:37:39.821Z,20.70
2019-05-19T18:40:09.317Z,20.56
2019-05-19T18:42:38.680Z,20.52
2019-05-19T18:45:08.174Z,20.38
2019-05-19T18:47:37.514Z,20.34
2019-05-19T18:50:07.923Z,20.23
2019-05-19T18:52:37.340Z,20.12
2019-05-19T18:55:08.258Z,19.99
2019-05-19T18:57:37.571Z,19.78
2019-05-19T19:00:07.849Z,19.48
2019-05-19T19:02:37.326Z,19.23
2019-05-19T19:05:07.189Z,19.04
2019-05-19T19:07:51.620Z,18.82
2019-05-19T19:10:21.193Z,18.56
2019-05-19T19:12:50.549Z,18.24
2019-05-19T19:15:19.905Z,18.00
2019-05-19T19:17:49.226Z,17.79
2019-05-19T19:20:18.968Z,17.60
2019-05-19T19:22:48.352Z,17.41
2019-05-19T19:25:17.702Z,17.27
2019-05-19T19:27:47.087Z,17.13
2019-05-19T19:30:16.733Z,16.97
2019-05-19T19:32:46.115Z,16.82
2019-05-19T19:35:15.741Z,16.68
2019-05-19T19:37:45.068Z,16.55
2019-05-19T19:40:16.193Z,16.46
2019-05-19T19:42:45.534Z,16.38
2019-05-19T19:45:14.916Z,16.27
2019-05-19T19:47:44.226Z,16.18
2019-05-19T19:50:13.562Z,16.11
2019-05-19T19:52:42.923Z,16.03
2019-05-19T19:55:12.369Z,15.93
2019-05-19T19:57:41.728Z,15.89
2019-05-19T20:00:18.203Z,15.83
2019-05-19T20:02:42.566Z,15.81
2019-05-19T20:05:11.903Z,15.77
2019-05-19T20:07:41.279Z,15.75
2019-05-19T20:10:10.653Z,15.70
2019-05-19T20:12:39.985Z,15.66
2019-05-19T20:15:14.943Z,15.63
2019-05-19T20:17:44.345Z,15.57
2019-05-19T20:20:14.068Z,15.55
2019-05-19T20:22:43.467Z,15.52
2019-05-19T20:25:12.872Z,15.47
2019-05-19T20:27:42.364Z,15.45
2019-05-19T20:30:12.153Z,15.41
2019-05-19T20:32:41.542Z,15.36
2019-05-19T20:35:11.758Z,15.30
2019-05-19T20:37:41.191Z,15.26
2019-05-19T20:40:10.639Z,15.22
2019-05-19T20:42:40.084Z,15.17
2019-05-19T20:45:10.028Z,15.10
2019-05-19T20:47:39.435Z,15.10
2019-05-19T20:50:08.928Z,15.07
2019-05-19T20:52:38.403Z,15.03
2019-05-19T20:55:07.841Z,15.02
2019-05-19T20:57:37.251Z,14.99
2019-05-19T21:00:07.352Z,14.98
2019-05-19T21:02:36.738Z,14.98
2019-05-19T21:05:06.458Z,14.92
2019-05-19T21:07:35.814Z,14.93
2019-05-19T21:10:05.872Z,14.92
2019-05-19T21:12:35.370Z,14.87
2019-05-19T21:15:04.931Z,14.84
2019-05-19T21:17:34.973Z,14.78
2019-05-19T21:20:04.711Z,14.78
2019-05-19T21:22:34.162Z,14.81
2019-05-19T21:25:03.741Z,14.80
2019-05-19T21:27:33.214Z,14.77
2019-05-19T21:30:09.131Z,14.75
2019-05-19T21:32:38.628Z,14.72
2019-05-19T21:35:08.176Z,14.69
2019-05-19T21:37:37.565Z,14.65
2019-05-19T21:40:07.568Z,14.65
2019-05-19T21:42:37.004Z,14.63
2019-05-19T21:45:07.233Z,14.60
2019-05-19T21:47:36.683Z,14.57
2019-05-19T21:50:07.636Z,14.54
2019-05-19T21:52:37.002Z,14.50
2019-05-19T21:55:07.237Z,14.43
2019-05-19T21:57:37.013Z,14.39
2019-05-19T22:00:08.778Z,14.37
2019-05-19T22:02:39.405Z,14.30
2019-05-19T22:05:09.041Z,14.29
2019-05-19T22:07:58.268Z,14.22
2019-05-19T22:10:27.720Z,14.11
2019-05-19T22:12:57.078Z,14.02
2019-05-19T22:15:26.479Z,13.97
2019-05-19T22:17:55.849Z,13.97
2019-05-19T22:20:25.278Z,13.88
2019-05-19T22:22:54.688Z,13.84
2019-05-19T22:25:24.141Z,13.86
2019-05-19T22:27:53.603Z,13.86
2019-05-19T22:30:23.300Z,13.86
2019-05-19T22:32:52.703Z,13.86
2019-05-19T22:35:22.121Z,13.85
2019-05-19T22:37:51.516Z,13.89
2019-05-19T22:40:20.899Z,13.89
2019-05-19T22:42:50.252Z,13.87
2019-05-19T22:45:19.585Z,13.79
2019-05-19T22:47:48.947Z,13.79
2019-05-19T22:50:18.517Z,13.83
2019-05-19T22:52:47.923Z,13.82
2019-05-19T22:55:17.762Z,13.82
2019-05-19T22:57:47.127Z,13.82
2019-05-19T23:00:17.853Z,13.86
2019-05-19T23:02:47.190Z,13.87
2019-05-19T23:05:18.283Z,13.87
2019-05-19T23:07:47.627Z,13.86
2019-05-19T23:10:17.161Z,13.85
2019-05-19T23:12:46.530Z,13.84
2019-05-19T23:15:16.605Z,13.81
2019-05-19T23:17:45.969Z,13.81
2019-05-19T23:20:15.833Z,13.78
2019-05-19T23:22:45.324Z,13.76
2019-05-19T23:25:14.834Z,13.74
2019-05-19T23:27:44.219Z,13.71
2019-05-19T23:30:13.860Z,13.72
2019-05-19T23:32:43.191Z,13.72
2019-05-19T23:35:13.172Z,13.69
2019-05-19T23:37:42.521Z,13.64
2019-05-19T23:40:12.171Z,13.59
2019-05-19T23:42:41.538Z,13.55
2019-05-19T23:45:11.184Z,13.50
2019-05-19T23:47:40.559Z,13.44
2019-05-19T23:50:10.411Z,13.43
2019-05-19T23:52:39.731Z,13.39
2019-05-19T23:55:09.367Z,13.37
2019-05-19T23:57:38.724Z,13.34
